Time;durP1;ratioP1;P1;durP2;ratioP2;P2;SDS_P1;SDS_P2;PMS_P1;PMS_P2;Temp;Humidity;BMP_temperature;BMP_pressure;BME280_temperature;BME280_humidity;BME280_pressure;Samples;Min_cycle;Max_cycle;Signal;HPM_P1;HPM_P2
2022/12/20 00:00:19;;;;;;;4.90;3.20;;;;;;;9.02;100.00;100803.44;688875;28;1436;-66
2022/12/20 00:00:42;;;;;;;5.47;3.05;;;;;;;9.05;100.00;100802.59;688279;28;1445;-65
2022/12/20 00:01:10;;;;;;;6.15;3.50;;;;;;;9.01;100.00;100809.50;687677;28;1601;-66
2022/12/20 00:01:33;;;;;;;5.80;3.42;;;;;;;8.96;100.00;100803.44;684611;28;1614;-65
2022/12/20 00:01:53;;;;;;;5.68;3.20;;;;;;;8.92;100.00;100801.69;684542;28;1705;-65
2022/12/20 00:02:14;;;;;;;5.80;3.23;;;;;;;8.94;100.00;100794.72;685124;28;1331;-64
2022/12/20 00:02:34;;;;;;;6.50;3.27;;;;;;;8.97;100.00;100806.03;684627;28;4327;-65
2022/12/20 00:02:54;;;;;;;5.97;3.20;;;;;;;8.99;100.00;100804.31;686137;28;1645;-65
2022/12/20 00:03:15;;;;;;;6.80;3.30;;;;;;;8.99;100.00;100800.84;685130;28;1307;-66
2022/12/20 00:03:36;;;;;;;6.70;3.40;;;;;;;8.98;100.00;100799.09;684882;28;1414;-65
2022/12/20 00:03:58;;;;;;;4.82;3.30;;;;;;;8.93;100.00;100808.63;684420;28;1343;-65
2022/12/20 00:04:19;;;;;;;5.68;3.28;;;;;;;8.90;100.00;100813.81;685093;28;1998;-65
2022/12/20 00:04:39;;;;;;;5.75;3.38;;;;;;;8.91;100.00;100805.13;684548;28;1463;-65
2022/12/20 00:05:00;;;;;;;4.63;3.30;;;;;;;8.86;100.00;100808.59;688012;28;1656;-65
2022/12/20 00:05:20;;;;;;;4.80;3.38;;;;;;;8.84;100.00;100810.31;685026;28;1681;-65
2022/12/20 00:05:41;;;;;;;5.20;3.23;;;;;;;8.80;100.00;100813.75;685246;28;4551;-65
2022/12/20 00:06:02;;;;;;;4.72;3.05;;;;;;;8.78;100.00;100802.47;682277;28;3067;-66
2022/12/20 00:06:23;;;;;;;5.07;3.30;;;;;;;8.77;100.00;100805.94;684619;28;1282;-65
2022/12/20 00:06:43;;;;;;;5.30;3.30;;;;;;;8.84;100.00;100814.66;684970;28;1377;-66
2022/12/20 00:07:04;;;;;;;4.75;3.10;;;;;;;8.98;100.00;100805.16;685267;28;1605;-64
2022/12/20 00:07:24;;;;;;;5.43;3.30;;;;;;;8.97;100.00;100805.16;688134;28;1594;-65
2022/12/20 00:07:45;;;;;;;6.25;3.38;;;;;;;8.91;100.00;100806.00;684000;28;1393;-63
2022/12/20 00:08:06;;;;;;;4.73;3.00;;;;;;;8.89;100.00;100804.25;686851;28;1584;-63
2022/12/20 00:08:27;;;;;;;5.30;2.97;;;;;;;8.99;100.00;100796.47;687053;28;1338;-63
2022/12/20 00:09:00;;;;;;;5.20;3.40;;;;;;;9.18;100.00;100800.03;686626;28;4311;-63
2022/12/20 00:09:21;;;;;;;5.13;3.30;;;;;;;9.23;100.00;100801.78;686412;28;1449;-63
2022/12/20 00:09:41;;;;;;;5.03;3.13;;;;;;;9.25;100.00;100797.41;689716;28;1552;-64
2022/12/20 00:10:02;;;;;;;5.33;3.10;;;;;;;9.24;100.00;100793.94;688548;28;1602;-66
2022/12/20 00:10:23;;;;;;;6.13;3.33;;;;;;;9.25;100.00;100800.03;687595;28;1325;-63
2022/12/20 00:10:44;;;;;;;6.20;3.30;;;;;;;9.16;100.00;100791.31;688882;28;1468;-63
2022/12/20 00:11:07;;;;;;;5.25;3.13;;;;;;;9.09;100.00;100805.19;688088;28;1453;-64
2022/12/20 00:11:28;;;;;;;5.65;3.38;;;;;;;9.02;100.00;100795.63;688451;28;1559;-64
2022/12/20 00:11:50;;;;;;;5.95;3.28;;;;;;;9.05;100.00;100793.03;687385;28;4334;-63
2022/12/20 00:12:10;;;;;;;5.90;3.00;;;;;;;9.02;100.00;100793.00;688198;28;1462;-63
2022/12/20 00:12:31;;;;;;;5.55;3.40;;;;;;;9.04;100.00;100793.88;687363;28;1545;-63
2022/12/20 00:12:52;;;;;;;5.07;3.30;;;;;;;8.98;100.00;100799.09;688367;28;1415;-64
2022/12/20 00:13:13;;;;;;;5.40;3.15;;;;;;;8.96;100.00;100798.22;686867;28;1238;-64
2022/12/20 00:13:35;;;;;;;4.93;3.10;;;;;;;8.96;100.00;100796.47;687983;28;845;-63
2022/12/20 00:13:57;;;;;;;5.13;3.10;;;;;;;9.06;100.00;100791.31;688327;28;1684;-64
2022/12/20 00:14:17;;;;;;;5.63;3.20;;;;;;;9.17;100.00;100787.84;688117;28;1422;-64
2022/12/20 00:14:38;;;;;;;5.05;3.10;;;;;;;9.20;100.00;100787.00;688449;28;4302;-64
2022/12/20 00:14:59;;;;;;;5.15;3.17;;;;;;;9.16;100.00;100782.63;687776;28;1327;-63
2022/12/20 00:15:20;;;;;;;5.32;2.97;;;;;;;9.12;100.00;100786.94;687162;28;1381;-64
2022/12/20 00:15:41;;;;;;;6.00;2.97;;;;;;;9.28;100.00;100787.03;688485;28;1584;-64
2022/12/20 00:16:19;;;;;;;6.10;3.20;;;;;;;9.26;100.00;100787.00;687692;28;1750;-63
2022/12/20 00:16:39;;;;;;;5.65;2.95;;;;;;;9.20;100.00;100785.25;686602;28;1187;-62
2022/12/20 00:17:00;;;;;;;5.17;2.97;;;;;;;9.13;100.00;100786.09;687696;28;1385;-63
2022/12/20 00:17:21;;;;;;;4.87;2.90;;;;;;;9.12;100.00;100784.34;687133;28;1444;-64
2022/12/20 00:17:41;;;;;;;5.72;3.10;;;;;;;9.07;100.00;100787.81;687564;28;4385;-63
2022/12/20 00:18:02;;;;;;;5.60;3.10;;;;;;;9.09;100.00;100786.94;684894;28;3635;-63
2022/12/20 00:18:23;;;;;;;6.00;3.40;;;;;;;9.07;100.00;100782.59;684751;28;2634;-63
2022/12/20 00:18:44;;;;;;;5.20;3.30;;;;;;;9.01;100.00;100780.84;684360;28;1360;-64
2022/12/20 00:19:05;;;;;;;4.93;2.90;;;;;;;9.03;100.00;100779.13;684821;28;1422;-64
2022/12/20 00:19:26;;;;;;;5.45;2.90;;;;;;;8.99;100.00;100780.84;685997;28;1791;-63
2022/12/20 00:19:47;;;;;;;4.82;3.10;;;;;;;8.99;100.00;100782.59;687243;28;1550;-64
2022/12/20 00:20:08;;;;;;;5.57;3.20;;;;;;;9.03;100.00;100781.72;688043;28;1630;-64
2022/12/20 00:20:29;;;;;;;5.78;3.22;;;;;;;8.99;100.00;100775.63;687991;28;1533;-64
2022/12/20 00:20:57;;;;;;;5.78;3.20;;;;;;;8.93;100.00;100787.75;687838;28;4431;-64
2022/12/20 00:21:18;;;;;;;5.63;3.10;;;;;;;8.90;100.00;100785.13;688116;28;1596;-64
2022/12/20 00:21:38;;;;;;;5.23;3.33;;;;;;;8.86;100.00;100774.72;689398;28;1361;-63
2022/12/20 00:21:59;;;;;;;5.53;3.00;;;;;;;8.85;100.00;100780.78;687502;28;1465;-64
2022/12/20 00:22:20;;;;;;;5.53;2.95;;;;;;;8.85;100.00;100780.78;687688;28;1874;-63
2022/12/20 00:22:41;;;;;;;4.45;2.90;;;;;;;8.96;100.00;100777.34;688753;28;5100;-63
2022/12/20 00:23:02;;;;;;;5.23;3.00;;;;;;;8.95;100.00;100780.81;687582;28;1434;-64
2022/12/20 00:23:22;;;;;;;5.15;2.90;;;;;;;8.96;100.00;100786.03;687619;28;2070;-63
2022/12/20 00:23:43;;;;;;;4.97;3.17;;;;;;;9.06;100.00;100773.91;687531;28;4496;-64
2022/12/20 00:24:05;;;;;;;5.50;3.03;;;;;;;9.15;100.00;100773.94;688904;28;1906;-63
2022/12/20 00:24:25;;;;;;;5.28;2.95;;;;;;;9.12;100.00;100773.91;687141;28;1728;-64
2022/12/20 00:24:46;;;;;;;5.38;3.03;;;;;;;9.10;100.00;100780.88;686805;28;1655;-64
2022/12/20 00:25:07;;;;;;;4.30;2.90;;;;;;;9.17;100.00;100777.41;686117;28;1645;-64
2022/12/20 00:25:28;;;;;;;4.88;2.90;;;;;;;9.26;100.00;100775.69;688009;28;1597;-64
2022/12/20 00:25:49;;;;;;;4.90;2.85;;;;;;;9.26;100.00;100771.34;688805;28;1594;-63
2022/12/20 00:26:14;;;;;;;4.78;2.90;;;;;;;9.19;100.00;100770.47;688754;28;2542;-63
2022/12/20 00:26:36;;;;;;;5.40;2.90;;;;;;;9.13;100.00;100774.81;689817;28;4468;-64
2022/12/20 00:26:57;;;;;;;5.18;3.10;;;;;;;9.09;100.00;100768.69;690717;28;1426;-64
2022/12/20 00:27:18;;;;;;;5.57;3.20;;;;;;;9.08;100.00;100764.34;687435;28;1508;-64
2022/12/20 00:27:39;;;;;;;5.50;3.13;;;;;;;9.12;100.00;100773.91;687864;28;1614;-63
2022/12/20 00:28:00;;;;;;;5.70;3.13;;;;;;;9.14;100.00;100761.75;687404;28;1497;-63
2022/12/20 00:28:21;;;;;;;5.20;3.10;;;;;;;9.14;100.00;100766.97;685230;28;1752;-63
2022/12/20 00:28:44;;;;;;;5.18;3.00;;;;;;;9.21;100.00;100760.03;684729;28;1447;-64
2022/12/20 00:29:05;;;;;;;5.43;3.13;;;;;;;9.19;100.00;100760.03;686311;28;1399;-64
2022/12/20 00:29:26;;;;;;;5.03;3.00;;;;;;;9.28;100.00;100753.09;688339;28;1545;-64
2022/12/20 00:29:47;;;;;;;5.38;2.88;;;;;;;9.20;100.00;100759.16;687683;28;4427;-63
2022/12/20 00:30:08;;;;;;;5.03;2.90;;;;;;;9.18;100.00;100753.06;687355;28;4158;-64
2022/12/20 00:30:28;;;;;;;5.20;3.13;;;;;;;9.18;100.00;100758.28;690227;28;959;-63
2022/12/20 00:30:53;;;;;;;5.70;3.00;;;;;;;9.28;100.00;100755.72;689705;28;1564;-64
2022/12/20 00:31:15;;;;;;;5.38;2.90;;;;;;;9.27;100.00;100759.19;687201;28;1490;-64
2022/12/20 00:31:36;;;;;;;5.35;2.80;;;;;;;9.26;100.00;100750.47;686077;28;1335;-63
2022/12/20 00:31:57;;;;;;;5.10;2.97;;;;;;;9.27;100.00;100751.34;682524;28;1414;-64
2022/12/20 00:32:17;;;;;;;5.63;3.08;;;;;;;9.31;100.00;100750.50;683270;28;1551;-64
2022/12/20 00:32:38;;;;;;;6.78;3.30;;;;;;;9.31;100.00;100755.72;682837;28;4578;-64
2022/12/20 00:32:59;;;;;;;6.05;2.88;;;;;;;9.26;100.00;100755.69;684140;28;1381;-64
2022/12/20 00:33:19;;;;;;;5.10;2.80;;;;;;;9.27;100.00;100751.34;686185;28;1425;-63
2022/12/20 00:33:43;;;;;;;5.10;2.72;;;;;;;9.23;100.00;100749.59;686400;28;1734;-64
2022/12/20 00:34:04;;;;;;;4.70;2.80;;;;;;;9.22;100.00;100748.75;689520;28;1557;-63
2022/12/20 00:34:25;;;;;;;4.68;2.80;;;;;;;9.25;100.00;100753.06;687839;28;1686;-64
2022/12/20 00:34:46;;;;;;;4.18;2.80;;;;;;;9.38;100.00;100754.84;688160;28;1615;-64
2022/12/20 00:35:07;;;;;;;5.43;3.10;;;;;;;9.39;100.00;100748.78;687605;28;1236;-64
2022/12/20 00:35:27;;;;;;;5.07;2.90;;;;;;;9.35;100.00;100749.63;685757;28;1544;-64
2022/12/20 00:35:48;;;;;;;4.97;2.87;;;;;;;9.28;100.00;100740.94;687903;28;4447;-64
2022/12/20 00:36:09;;;;;;;5.20;2.90;;;;;;;9.24;100.00;100740.94;687166;28;1264;-64
2022/12/20 00:36:31;;;;;;;5.20;2.70;;;;;;;9.18;100.00;100747.00;683102;28;1427;-64
2022/12/20 00:36:52;;;;;;;4.85;2.70;;;;;;;9.15;100.00;100742.66;681011;28;1817;-64
2022/12/20 00:37:12;;;;;;;5.20;2.83;;;;;;;9.18;100.00;100753.06;683496;28;1601;-64
2022/12/20 00:37:33;;;;;;;5.60;3.15;;;;;;;9.16;100.00;100746.97;685191;28;1889;-64
2022/12/20 00:37:54;;;;;;;4.67;3.00;;;;;;;9.14;100.00;100750.47;685756;28;1504;-65
2022/12/20 00:38:14;;;;;;;5.22;2.97;;;;;;;9.12;100.00;100752.19;683060;28;1244;-64
2022/12/20 00:38:35;;;;;;;5.00;2.88;;;;;;;9.07;100.00;100743.47;685067;28;4776;-65
2022/12/20 00:38:57;;;;;;;4.78;2.70;;;;;;;9.10;100.00;100756.53;684795;28;1423;-65
2022/12/20 00:39:18;;;;;;;5.22;2.88;;;;;;;9.12;100.00;100753.03;685226;28;1632;-65
2022/12/20 00:39:38;;;;;;;4.75;2.90;;;;;;;9.11;100.00;100756.53;685378;28;1096;-64
2022/12/20 00:39:59;;;;;;;4.38;2.60;;;;;;;9.09;100.00;100749.56;685960;28;1533;-64
2022/12/20 00:40:20;;;;;;;4.33;2.60;;;;;;;9.06;100.00;100749.56;687558;28;1302;-63
2022/12/20 00:40:40;;;;;;;3.80;2.70;;;;;;;9.05;100.00;100742.63;685649;28;1752;-65
2022/12/20 00:41:09;;;;;;;4.90;3.00;;;;;;;9.11;100.00;100742.63;684106;28;1616;-64
2022/12/20 00:41:32;;;;;;;4.88;2.90;;;;;;;9.10;100.00;100746.97;682246;28;1827;-64
2022/12/20 00:41:53;;;;;;;4.88;2.80;;;;;;;9.07;100.00;100738.25;682007;28;4694;-64
2022/12/20 00:42:14;;;;;;;6.07;3.05;;;;;;;9.01;100.00;100745.22;683337;28;1410;-64
2022/12/20 00:42:35;;;;;;;5.00;2.80;;;;;;;9.03;100.00;100740.88;683144;28;1659;-64
2022/12/20 00:42:55;;;;;;;5.00;2.88;;;;;;;9.07;100.00;100743.47;684154;28;1592;-64
2022/12/20 00:43:16;;;;;;;4.87;2.90;;;;;;;9.06;100.00;100741.75;686691;28;1760;-64
2022/12/20 00:43:38;;;;;;;5.18;2.95;;;;;;;9.16;100.00;100748.72;685799;28;1595;-64
2022/12/20 00:43:59;;;;;;;5.28;2.90;;;;;;;9.24;100.00;100746.13;682700;28;1447;-64
2022/12/20 00:44:20;;;;;;;5.10;2.92;;;;;;;9.19;100.00;100744.41;683586;28;1918;-65
2022/12/20 00:44:41;;;;;;;5.18;2.80;;;;;;;9.17;100.00;100734.81;686527;28;4575;-64
2022/12/20 00:45:02;;;;;;;5.20;2.88;;;;;;;9.19;100.00;100739.19;685046;28;1100;-64
2022/12/20 00:45:23;;;;;;;5.40;2.75;;;;;;;9.28;100.00;100740.94;686023;28;1476;-64
2022/12/20 00:45:43;;;;;;;5.30;3.00;;;;;;;9.23;100.00;100736.56;687133;28;1322;-64
2022/12/20 00:46:06;;;;;;;5.50;3.15;;;;;;;9.20;100.00;100735.69;687126;28;1351;-64
2022/12/20 00:46:26;;;;;;;4.90;3.10;;;;;;;9.19;100.00;100738.28;687508;28;1634;-64
2022/12/20 00:46:47;;;;;;;4.78;2.92;;;;;;;9.11;100.00;100735.69;685614;28;1424;-65
2022/12/20 00:47:08;;;;;;;5.33;2.97;;;;;;;9.06;100.00;100732.19;682886;28;1502;-65
2022/12/20 00:47:28;;;;;;;5.00;3.10;;;;;;;9.03;100.00;100734.78;685355;28;1636;-64
2022/12/20 00:47:49;;;;;;;4.97;3.13;;;;;;;8.99;100.00;100735.66;684071;28;4361;-63
2022/12/20 00:48:10;;;;;;;4.70;3.30;;;;;;;8.95;100.00;100739.97;681629;28;1473;-64
2022/12/20 00:48:32;;;;;;;5.70;3.20;;;;;;;8.99;100.00;100740.84;680171;28;1395;-65
2022/12/20 00:48:53;;;;;;;5.38;3.00;;;;;;;9.20;100.00;100737.44;681298;29;1629;-64
2022/12/20 00:49:15;;;;;;;5.43;3.10;;;;;;;9.30;100.00;100740.91;681149;29;1583;-64
2022/12/20 00:49:36;;;;;;;5.13;3.15;;;;;;;9.29;100.00;100739.16;681412;29;1603;-65
2022/12/20 00:49:56;;;;;;;4.88;2.92;;;;;;;9.32;100.00;100741.81;681015;28;1570;-65
2022/12/20 00:50:17;;;;;;;4.43;2.77;;;;;;;9.29;100.00;100744.38;687164;28;1789;-64
2022/12/20 00:50:37;;;;;;;5.20;2.83;;;;;;;9.21;100.00;100733.97;688793;28;4416;-64
2022/12/20 00:51:03;;;;;;;5.70;2.90;;;;;;;9.16;100.00;100740.91;690158;28;1343;-65
2022/12/20 00:51:27;;;;;;;4.97;2.90;;;;;;;9.09;100.00;100745.22;689900;28;1640;-64
2022/12/20 00:51:47;;;;;;;5.05;2.90;;;;;;;9.01;100.00;100740.00;688821;28;1928;-64
2022/12/20 00:52:08;;;;;;;4.33;2.70;;;;;;;8.96;100.00;100744.31;687709;28;1324;-64
2022/12/20 00:52:28;;;;;;;4.17;2.83;;;;;;;8.93;100.00;100746.03;687854;28;1637;-65
2022/12/20 00:52:49;;;;;;;5.22;2.80;;;;;;;8.91;100.00;100745.19;687937;28;1390;-64
2022/12/20 00:53:10;;;;;;;5.17;2.80;;;;;;;8.96;100.00;100744.31;687694;28;1281;-64
2022/12/20 00:53:31;;;;;;;4.32;2.78;;;;;;;9.04;100.00;100759.97;687686;28;1650;-64
2022/12/20 00:53:52;;;;;;;4.93;3.00;;;;;;;9.12;100.00;100746.97;684729;28;4760;-64
2022/12/20 00:54:13;;;;;;;6.78;2.90;;;;;;;9.16;100.00;100754.78;685568;28;1136;-64
2022/12/20 00:54:33;;;;;;;4.90;2.80;;;;;;;9.13;100.00;100749.56;685610;28;1840;-64
2022/12/20 00:54:54;;;;;;;5.20;2.80;;;;;;;9.15;100.00;100758.28;685040;28;1668;-64
2022/12/20 00:55:15;;;;;;;4.45;2.70;;;;;;;9.14;100.00;100756.53;685992;28;1412;-64
2022/12/20 00:55:44;;;;;;;5.07;2.80;;;;;;;9.10;100.00;100751.31;685402;28;1565;-63
2022/12/20 00:56:05;;;;;;;4.38;2.75;;;;;;;9.04;100.00;100749.53;688124;28;1402;-64
2022/12/20 00:56:26;;;;;;;4.97;2.90;;;;;;;9.02;100.00;100751.28;685392;28;1633;-65
2022/12/20 00:56:49;;;;;;;5.40;3.08;;;;;;;8.96;100.00;100757.34;684532;28;4381;-64
2022/12/20 00:57:10;;;;;;;5.40;2.90;;;;;;;8.97;100.00;100748.69;682152;28;1302;-64
2022/12/20 00:57:30;;;;;;;4.78;2.90;;;;;;;8.99;100.00;100764.31;681906;28;1498;-63
2022/12/20 00:57:51;;;;;;;4.90;2.90;;;;;;;9.17;100.00;100764.38;683458;28;1715;-64
2022/12/20 00:58:12;;;;;;;4.57;2.80;;;;;;;9.23;100.00;100765.25;684777;28;1484;-64
2022/12/20 00:58:36;;;;;;;4.88;2.65;;;;;;;9.24;100.00;100765.25;682616;28;1525;-64
2022/12/20 00:58:59;;;;;;;4.40;2.60;;;;;;;9.29;100.00;100765.25;682983;28;1631;-64
2022/12/20 00:59:19;;;;;;;4.80;2.97;;;;;;;9.22;100.00;100766.13;684032;28;1605;-65
2022/12/20 00:59:40;;;;;;;4.80;2.95;;;;;;;9.23;100.00;100775.69;683732;28;4512;-63
2022/12/20 01:00:01;;;;;;;5.15;2.90;;;;;;;9.23;100.00;100768.72;684236;28;1287;-63
2022/12/20 01:00:21;;;;;;;5.70;2.90;;;;;;;9.21;100.00;100775.69;684586;28;1626;-64
2022/12/20 01:00:42;;;;;;;5.15;2.90;;;;;;;9.23;100.00;100778.31;682383;28;1745;-65
2022/12/20 01:01:04;;;;;;;4.75;2.80;;;;;;;9.18;100.00;100773.09;683860;28;1460;-65
2022/12/20 01:01:29;;;;;;;6.20;3.28;;;;;;;9.20;100.00;100779.16;685416;28;1316;-64
2022/12/20 01:01:50;;;;;;;4.88;2.90;;;;;;;9.17;100.00;100779.16;684500;28;1767;-64
2022/12/20 01:02:13;;;;;;;5.28;2.90;;;;;;;9.16;100.00;100775.66;683365;28;1387;-64
2022/12/20 01:02:34;;;;;;;4.90;2.92;;;;;;;9.20;100.00;100782.63;683363;28;4532;-63
2022/12/20 01:02:55;;;;;;;5.07;2.90;;;;;;;9.32;100.00;100780.94;683071;28;1507;-65
2022/12/20 01:03:16;;;;;;;4.60;2.97;;;;;;;9.34;100.00;100781.81;683706;28;1173;-63
2022/12/20 01:03:36;;;;;;;5.47;2.85;;;;;;;9.31;100.00;100781.81;683352;28;1715;-63
2022/12/20 01:03:57;;;;;;;5.83;3.20;;;;;;;9.31;100.00;100789.63;680330;29;1644;-64
2022/12/20 01:04:18;;;;;;;5.63;3.27;;;;;;;9.30;100.00;100786.13;680319;28;1994;-64
2022/12/20 01:04:39;;;;;;;5.32;2.88;;;;;;;9.35;100.00;100786.16;682893;28;1895;-64
2022/12/20 01:04:59;;;;;;;5.03;2.80;;;;;;;9.34;100.00;100789.63;684733;28;1422;-65
2022/12/20 01:05:20;;;;;;;5.63;2.70;;;;;;;9.38;100.00;100781.81;685009;28;1216;-63
2022/12/20 01:05:50;;;;;;;5.00;2.70;;;;;;;9.50;100.00;100782.72;686456;28;4352;-64
2022/12/20 01:06:11;;;;;;;4.63;3.00;;;;;;;9.58;100.00;100790.53;687994;28;1362;-64
2022/12/20 01:06:32;;;;;;;5.20;3.00;;;;;;;9.61;100.00;100783.59;686322;28;1324;-64
2022/12/20 01:06:52;;;;;;;5.35;3.00;;;;;;;9.58;100.00;100790.53;686233;28;1593;-65
2022/12/20 01:07:13;;;;;;;4.88;2.80;;;;;;;9.55;100.00;100788.78;685065;28;1646;-64
2022/12/20 01:07:34;;;;;;;4.85;2.90;;;;;;;9.51;100.00;100789.66;686555;28;1685;-64
2022/12/20 01:07:54;;;;;;;5.73;2.90;;;;;;;9.47;100.00;100791.41;685880;28;1813;-64
2022/12/20 01:08:15;;;;;;;5.13;3.10;;;;;;;9.48;100.00;100787.06;685811;28;1295;-64
2022/12/20 01:08:36;;;;;;;4.88;3.10;;;;;;;9.44;100.00;100790.53;684273;28;4339;-64
2022/12/20 01:08:57;;;;;;;4.63;2.83;;;;;;;9.36;100.00;100787.91;683086;28;1677;-64
2022/12/20 01:09:18;;;;;;;4.80;2.95;;;;;;;9.30;100.00;100787.88;684013;28;1640;-65
2022/12/20 01:09:38;;;;;;;4.68;3.10;;;;;;;9.24;100.00;100783.53;681524;28;1778;-64
2022/12/20 01:09:59;;;;;;;5.07;3.00;;;;;;;9.24;100.00;100790.50;682248;28;1191;-65
2022/12/20 01:10:20;;;;;;;5.43;2.90;;;;;;;9.19;100.00;100782.63;684354;28;1769;-65
2022/12/20 01:10:41;;;;;;;4.90;2.70;;;;;;;9.14;100.00;100779.16;682882;28;1714;-64
2022/12/20 01:11:02;;;;;;;5.45;2.97;;;;;;;9.09;100.00;100773.91;685045;28;1256;-64
2022/12/20 01:11:31;;;;;;;6.78;3.10;;;;;;;9.03;100.00;100785.19;684955;28;1760;-65
2022/12/20 01:11:52;;;;;;;4.32;2.80;;;;;;;8.98;100.00;100781.69;687061;28;5048;-64
2022/12/20 01:12:13;;;;;;;5.50;3.10;;;;;;;8.98;100.00;100780.81;688119;28;1430;-64
2022/12/20 01:12:34;;;;;;;5.13;3.13;;;;;;;9.01;100.00;100784.34;687029;28;1673;-64
2022/12/20 01:12:54;;;;;;;5.35;2.90;;;;;;;9.05;100.00;100777.38;687897;28;1481;-64
2022/12/20 01:13:15;;;;;;;5.50;2.88;;;;;;;9.18;100.00;100778.31;686324;28;1594;-64
2022/12/20 01:13:38;;;;;;;4.70;2.77;;;;;;;9.13;100.00;100780.88;688002;28;1863;-64
2022/12/20 01:14:03;;;;;;;4.53;2.70;;;;;;;9.09;100.00;100781.72;682184;28;1693;-64
2022/12/20 01:14:23;;;;;;;4.93;2.83;;;;;;;9.07;100.00;100779.97;683818;28;1709;-64
2022/12/20 01:14:44;;;;;;;5.07;2.90;;;;;;;9.03;100.00;100786.94;684490;28;4461;-63
2022/12/20 01:15:05;;;;;;;4.60;2.78;;;;;;;8.95;100.00;100780.81;681283;28;1281;-63
2022/12/20 01:15:26;;;;;;;4.95;3.00;;;;;;;8.90;100.00;100785.13;682753;28;1193;-63
2022/12/20 01:15:47;;;;;;;4.65;2.90;;;;;;;8.85;100.00;100783.38;683324;28;1436;-64
2022/12/20 01:16:11;;;;;;;4.88;2.85;;;;;;;8.82;100.00;100791.19;685027;28;1456;-64
2022/12/20 01:16:38;;;;;;;5.50;2.90;;;;;;;8.78;100.00;100789.44;682909;28;1463;-63
2022/12/20 01:16:59;;;;;;;4.93;3.00;;;;;;;8.80;100.00;100792.06;684057;28;1283;-65
2022/12/20 01:17:20;;;;;;;5.70;3.20;;;;;;;8.95;100.00;100792.13;684403;28;1677;-63
2022/12/20 01:17:41;;;;;;;5.43;2.80;;;;;;;9.13;100.00;100786.09;681418;28;4811;-64
2022/12/20 01:18:01;;;;;;;5.57;2.92;;;;;;;9.16;100.00;100790.44;677945;29;1627;-64
2022/12/20 01:18:22;;;;;;;5.73;3.07;;;;;;;9.12;100.00;100786.09;676078;29;1470;-63
2022/12/20 01:18:43;;;;;;;5.63;2.83;;;;;;;9.10;100.00;100793.06;674949;29;1647;-64
2022/12/20 01:19:05;;;;;;;5.07;2.75;;;;;;;9.12;100.00;100789.56;677532;29;1574;-63
2022/12/20 01:19:26;;;;;;;5.15;2.80;;;;;;;9.10;100.00;100785.22;680463;28;1501;-64
2022/12/20 01:19:46;;;;;;;4.83;2.90;;;;;;;9.07;100.00;100783.47;680686;28;1616;-63
2022/12/20 01:20:08;;;;;;;4.50;2.90;;;;;;;9.13;100.00;100780.88;684471;28;1519;-63
2022/12/20 01:20:29;;;;;;;4.57;2.88;;;;;;;9.16;100.00;100787.84;683116;28;1741;-63
2022/12/20 01:20:59;;;;;;;4.82;2.65;;;;;;;9.14;100.00;100782.63;684438;28;4377;-63
2022/12/20 01:21:21;;;;;;;6.07;2.92;;;;;;;9.11;100.00;100785.22;681629;28;1710;-63
2022/12/20 01:21:46;;;;;;;4.93;2.80;;;;;;;9.07;100.00;100780.88;684189;28;1518;-64
2022/12/20 01:22:07;;;;;;;5.18;2.80;;;;;;;9.09;100.00;100779.13;682368;28;1498;-62
2022/12/20 01:22:27;;;;;;;4.83;2.77;;;;;;;9.11;100.00;100785.22;684475;28;1421;-63
2022/12/20 01:22:48;;;;;;;6.43;2.90;;;;;;;9.13;100.00;100778.28;686050;28;5191;-64
2022/12/20 01:23:09;;;;;;;5.90;2.90;;;;;;;9.24;100.00;100787.88;686009;28;1234;-64
2022/12/20 01:23:30;;;;;;;4.72;2.97;;;;;;;9.19;100.00;100780.91;688061;28;1288;-63
2022/12/20 01:23:51;;;;;;;4.85;3.13;;;;;;;9.25;100.00;100781.78;687525;28;4283;-64
2022/12/20 01:24:17;;;;;;;4.85;2.85;;;;;;;9.25;100.00;100768.72;687480;28;1975;-63
2022/12/20 01:24:38;;;;;;;5.00;2.97;;;;;;;9.27;100.00;100772.22;687720;28;1592;-63
2022/12/20 01:24:58;;;;;;;6.40;3.30;;;;;;;9.20;100.00;100773.94;688299;28;1733;-63
2022/12/20 01:25:19;;;;;;;5.97;3.00;;;;;;;9.16;100.00;100775.66;687112;28;1502;-64
2022/12/20 01:25:39;;;;;;;5.00;2.90;;;;;;;9.10;100.00;100773.06;689085;28;1494;-64
2022/12/20 01:26:01;;;;;;;4.78;2.70;;;;;;;9.02;100.00;100764.34;687556;28;1509;-63
2022/12/20 01:26:24;;;;;;;6.30;2.88;;;;;;;8.95;100.00;100768.66;687529;28;4051;-64
2022/12/20 01:26:46;;;;;;;6.00;2.70;;;;;;;8.92;100.00;100765.19;687200;28;4509;-63
2022/12/20 01:27:07;;;;;;;4.72;2.90;;;;;;;8.96;100.00;100772.16;686219;28;1419;-63
2022/12/20 01:27:27;;;;;;;5.68;3.15;;;;;;;8.97;100.00;100763.44;687678;28;1457;-64
2022/12/20 01:27:48;;;;;;;5.63;3.10;;;;;;;9.03;100.00;100764.34;688815;28;1585;-63
2022/12/20 01:28:09;;;;;;;4.60;2.90;;;;;;;9.01;100.00;100759.97;686969;28;1322;-64
2022/12/20 01:28:31;;;;;;;4.47;2.70;;;;;;;9.09;100.00;100763.47;682207;28;1467;-62
2022/12/20 01:28:54;;;;;;;4.85;2.88;;;;;;;9.08;100.00;100764.34;683395;28;1725;-63
2022/12/20 01:29:15;;;;;;;4.15;2.78;;;;;;;9.07;100.00;100765.22;682498;28;1302;-66
2022/12/20 01:29:36;;;;;;;4.65;2.80;;;;;;;9.14;100.00;100766.13;684182;28;4510;-63
2022/12/20 01:29:56;;;;;;;4.72;2.78;;;;;;;9.16;100.00;100759.16;681718;28;1716;-63
2022/12/20 01:30:17;;;;;;;5.00;2.70;;;;;;;9.13;100.00;100760.00;682090;28;1407;-63
2022/12/20 01:30:41;;;;;;;4.40;2.73;;;;;;;9.10;100.00;100756.53;684733;28;1659;-63
2022/12/20 01:31:04;;;;;;;5.00;3.00;;;;;;;9.09;100.00;100760.88;681626;28;1370;-64
2022/12/20 01:31:26;;;;;;;4.85;2.90;;;;;;;9.21;100.00;100762.66;680826;28;1474;-65
2022/12/20 01:31:47;;;;;;;6.22;3.00;;;;;;;9.14;100.00;100759.16;682645;28;1775;-63
2022/12/20 01:32:07;;;;;;;5.40;2.92;;;;;;;9.09;100.00;100758.25;685173;28;1423;-62
2022/12/20 01:32:28;;;;;;;5.25;2.90;;;;;;;9.03;100.00;100763.47;685292;28;1386;-63
2022/12/20 01:32:49;;;;;;;5.93;2.80;;;;;;;8.99;100.00;100756.50;681838;28;4486;-64
2022/12/20 01:33:09;;;;;;;4.90;2.95;;;;;;;8.98;100.00;100749.53;685673;28;1286;-64
2022/12/20 01:33:30;;;;;;;4.97;2.92;;;;;;;8.98;100.00;100749.53;684824;28;1441;-63
2022/12/20 01:33:51;;;;;;;4.73;2.80;;;;;;;8.95;100.00;100752.16;686732;28;1401;-63
2022/12/20 01:34:12;;;;;;;5.18;2.85;;;;;;;8.91;100.00;100750.38;683159;28;1259;-63
2022/12/20 01:34:32;;;;;;;4.43;2.73;;;;;;;8.86;100.00;100759.06;685064;28;1698;-63
2022/12/20 01:34:53;;;;;;;4.65;2.88;;;;;;;8.83;100.00;100753.84;687256;28;1673;-63
2022/12/20 01:35:14;;;;;;;4.90;3.10;;;;;;;8.81;100.00;100760.78;687218;28;1365;-63
2022/12/20 01:35:35;;;;;;;4.30;2.80;;;;;;;8.79;100.00;100757.31;686426;28;4423;-63
2022/12/20 01:36:02;;;;;;;4.50;2.70;;;;;;;8.86;100.00;100756.47;687528;28;1576;-63
2022/12/20 01:36:31;;;;;;;5.07;2.90;;;;;;;8.89;100.00;100759.94;688550;28;1401;-62
2022/12/20 01:36:52;;;;;;;5.00;2.90;;;;;;;8.86;100.00;100755.56;688177;28;1856;-63
2022/12/20 01:37:13;;;;;;;4.93;2.85;;;;;;;8.84;100.00;100750.34;687109;28;1543;-63
2022/12/20 01:37:34;;;;;;;5.53;3.20;;;;;;;8.89;100.00;100754.72;687751;28;1469;-63
2022/12/20 01:37:55;;;;;;;4.90;3.00;;;;;;;9.03;100.00;100755.66;684594;28;1644;-63
2022/12/20 01:38:15;;;;;;;4.60;2.80;;;;;;;9.16;100.00;100746.13;685581;28;951;-63
2022/12/20 01:38:36;;;;;;;4.30;2.67;;;;;;;9.11;100.00;100746.13;684668;28;4364;-62
2022/12/20 01:39:18;;;;;;;5.20;2.93;;;;;;;9.07;100.00;100746.97;683920;28;1478;-63
2022/12/20 01:39:38;;;;;;;4.80;2.97;;;;;;;9.06;100.00;100755.66;687549;28;1727;-64
2022/12/20 01:39:59;;;;;;;4.40;2.80;;;;;;;9.22;100.00;100756.56;689059;28;2029;-64
2022/12/20 01:40:20;;;;;;;4.90;2.97;;;;;;;9.23;100.00;100753.06;687803;28;1350;-63
2022/12/20 01:40:40;;;;;;;4.90;3.00;;;;;;;9.29;100.00;100750.50;687124;28;1455;-64
2022/12/20 01:41:02;;;;;;;4.90;2.90;;;;;;;9.29;100.00;100749.59;686842;28;1518;-63
2022/12/20 01:41:23;;;;;;;5.07;3.00;;;;;;;9.28;100.00;100753.09;686601;28;1571;-63
2022/12/20 01:41:45;;;;;;;5.80;3.13;;;;;;;9.32;100.00;100753.09;686971;28;4455;-63
2022/12/20 01:42:05;;;;;;;5.90;3.00;;;;;;;9.29;100.00;100749.59;686885;28;1236;-63
2022/12/20 01:42:26;;;;;;;5.67;3.00;;;;;;;9.32;100.00;100749.63;683257;28;1395;-63
2022/12/20 01:42:47;;;;;;;5.63;2.90;;;;;;;9.29;100.00;100744.38;683107;28;1419;-64